CheckWX is a tool to help pilots better visualize weather data.  It is not intended as a substitute for an official pre-flight weather briefing.

05:22:06 UTC

KLLQ TAF
Monticello Municipal / Ellis Field Airport
Monticello, Arkansas, USA
KLLQ 200421Z 2004/2024 06008KT 5SM -SHRA BR VCTS BKN008 OVC015CB TEMPO 2004/2008 2SM -TSRA BR BKN004 OVC008CB FM200800 35009KT 4SM BR VCSH OVC008 FM201200 29005KT 4SM BR OVC004 FM201900 26008G16KT P6SM SCT015 BKN250

Feb-20@
04:00 UTC

Feb-20 @ 04:00 UTC

Feb-20@
08:00 UTC

Feb-20 @ 08:00 UTC

KLLQ 200421Z 2004/2024 06008KT 5SM -SHRA BR VCTS BKN008 OVC015CB
Wind
  • 060° at 8 KTS
Visibility
8,047 meters
Conditions
Light Rain, Mist, Area Thunderstorm
Cloud Levels
  • Broken at 800' AGL
  • Overcast at 1,500' AGL

Feb-20@
04:00 UTC

Feb-20 @ 04:00 UTC

Feb-20@
08:00 UTC

Feb-20 @ 08:00 UTC

TEMPO 2004/2008 2SM -TSRA BR BKN004 OVC008CB

Temporary

TemporaryChanges expected for less than half the time period

Visibility
3,219 meters
Conditions
Light Thunderstorm, Light Rain, Mist
Cloud Levels
  • Broken at 400' AGL
  • Overcast at 800' AGL

Feb-20@
08:00 UTC

Feb-20 @ 08:00 UTC

Feb-20@
12:00 UTC

Feb-20 @ 12:00 UTC

FM200800 35009KT 4SM BR VCSH OVC008

From

FromStandard forecast or significant change

Wind
  • 350° at 9 KTS
Visibility
6,437 meters
Conditions
Mist
Cloud Levels
  • Overcast at 800' AGL

Feb-20@
12:00 UTC

Feb-20 @ 12:00 UTC

Feb-20@
19:00 UTC

Feb-20 @ 19:00 UTC

FM201200 29005KT 4SM BR OVC004

From

FromStandard forecast or significant change

Wind
  • 290° at 5 KTS
Visibility
6,437 meters
Conditions
Mist
Cloud Levels
  • Overcast at 400' AGL

Feb-20@
19:00 UTC

Feb-20 @ 19:00 UTC

Feb-21@
00:00 UTC

Feb-21 @ 00:00 UTC

FM201900 26008G16KT P6SM SCT015 BKN250

From

FromStandard forecast or significant change

Wind
  • 260° at 8 KTS
  • {Gusting to 16 KTS
Visibility
10,000+ meters
Cloud Levels
  • Scattered at 1,500' AGL
  • Broken at 25,000' AGL